createdAt,value
2018-12-20T00:00:27.471Z,0.00
2018-12-20T00:01:27.519Z,0.00
2018-12-20T00:02:27.451Z,0.00
2018-12-20T00:03:27.449Z,0.00
2018-12-20T00:04:27.562Z,0.00
2018-12-20T00:05:27.487Z,0.00
2018-12-20T00:06:27.461Z,0.00
2018-12-20T00:07:27.451Z,0.00
2018-12-20T00:08:27.511Z,0.00
2018-12-20T00:09:27.470Z,0.00
2018-12-20T00:10:27.406Z,0.00
2018-12-20T00:11:27.343Z,0.00
2018-12-20T00:12:27.484Z,0.00
2018-12-20T00:13:27.297Z,0.00
2018-12-20T00:14:30.107Z,0.00
2018-12-20T00:15:27.356Z,0.00
2018-12-20T00:16:27.304Z,0.00
2018-12-20T00:17:27.311Z,0.00
2018-12-20T00:18:27.263Z,0.00
2018-12-20T00:19:27.390Z,0.00
2018-12-20T00:20:27.261Z,0.00
2018-12-20T00:21:27.309Z,0.00
2018-12-20T00:22:27.301Z,0.00
2018-12-20T00:23:27.248Z,0.00
2018-12-20T00:24:27.254Z,0.00
2018-12-20T00:25:27.282Z,0.00
2018-12-20T00:26:27.342Z,0.00
2018-12-20T00:27:27.168Z,0.00
2018-12-20T00:28:27.219Z,0.00
2018-12-20T00:29:27.182Z,0.00
2018-12-20T00:30:27.287Z,0.00
2018-12-20T00:31:27.119Z,0.00
2018-12-20T00:32:27.122Z,0.00
2018-12-20T00:33:27.226Z,0.00
2018-12-20T00:34:27.098Z,0.00
2018-12-20T00:35:27.150Z,0.00
2018-12-20T00:36:27.073Z,0.00
2018-12-20T00:37:27.131Z,0.00
2018-12-20T00:38:27.131Z,0.00
2018-12-20T00:39:27.229Z,0.00
2018-12-20T00:40:27.135Z,0.00
2018-12-20T00:41:27.050Z,0.00
2018-12-20T00:42:26.997Z,0.00
2018-12-20T00:43:27.109Z,0.00
2018-12-20T00:44:27.011Z,0.00
2018-12-20T00:45:26.969Z,0.00
2018-12-20T00:46:27.053Z,0.00
2018-12-20T00:47:27.116Z,0.00
2018-12-20T00:48:26.935Z,0.00
2018-12-20T00:49:27.051Z,0.00
2018-12-20T00:50:27.000Z,0.00
2018-12-20T00:51:27.084Z,0.00
2018-12-20T00:52:26.922Z,0.00
2018-12-20T00:53:26.874Z,0.00
2018-12-20T00:54:26.902Z,0.00
2018-12-20T00:55:26.925Z,0.00
2018-12-20T00:56:26.904Z,0.00
2018-12-20T00:57:27.078Z,0.00
2018-12-20T00:58:26.944Z,0.00
2018-12-20T00:59:26.832Z,0.00
2018-12-20T01:00:26.916Z,0.00
2018-12-20T01:01:27.006Z,0.00
2018-12-20T01:02:26.783Z,0.00
2018-12-20T01:03:26.859Z,0.00
2018-12-20T01:04:26.924Z,0.00
2018-12-20T01:05:26.838Z,0.00
2018-12-20T01:06:26.985Z,0.00
2018-12-20T01:07:26.827Z,0.00
2018-12-20T01:08:27.075Z,0.00
2018-12-20T01:09:26.783Z,0.00
2018-12-20T01:10:26.800Z,0.00
2018-12-20T01:11:26.872Z,0.00
2018-12-20T01:12:26.710Z,0.00
2018-12-20T01:13:26.660Z,0.00
2018-12-20T01:14:26.700Z,0.00
2018-12-20T01:15:26.762Z,0.00
2018-12-20T01:16:26.865Z,0.00
2018-12-20T01:17:26.688Z,0.00
2018-12-20T01:18:26.695Z,0.00
2018-12-20T01:19:26.851Z,0.00
2018-12-20T01:20:26.660Z,0.00
2018-12-20T01:21:26.710Z,0.00
2018-12-20T01:22:26.611Z,0.00
2018-12-20T01:23:26.712Z,0.00
2018-12-20T01:24:26.804Z,0.00
2018-12-20T01:25:26.673Z,0.00
2018-12-20T01:26:27.063Z,0.00
2018-12-20T01:27:26.515Z,0.00
2018-12-20T01:28:26.630Z,0.00
2018-12-20T01:29:26.521Z,0.00
2018-12-20T01:30:26.542Z,0.00
2018-12-20T01:31:26.493Z,0.00
2018-12-20T01:32:26.551Z,0.00
2018-12-20T01:33:26.490Z,0.00
2018-12-20T01:34:26.639Z,0.00
2018-12-20T01:35:26.470Z,0.00
2018-12-20T01:36:26.524Z,0.00
2018-12-20T01:37:26.439Z,0.00
2018-12-20T01:38:26.422Z,0.00
2018-12-20T01:39:26.547Z,0.00
2018-12-20T01:40:26.548Z,0.00
2018-12-20T01:41:26.407Z,0.00
2018-12-20T01:42:26.662Z,0.00
2018-12-20T01:43:26.482Z,0.00
2018-12-20T01:44:26.379Z,0.00
2018-12-20T01:45:26.356Z,0.00
2018-12-20T01:46:26.454Z,0.00
2018-12-20T01:47:26.487Z,0.00
2018-12-20T01:48:26.311Z,0.00
2018-12-20T01:49:26.296Z,0.00
2018-12-20T01:50:26.329Z,0.00
2018-12-20T01:51:26.254Z,0.00
2018-12-20T01:52:26.241Z,0.00
2018-12-20T01:53:26.270Z,0.00
2018-12-20T01:54:26.401Z,0.00
2018-12-20T01:55:26.389Z,0.00
2018-12-20T01:56:26.363Z,0.00
2018-12-20T01:57:26.284Z,0.00
2018-12-20T01:58:26.309Z,0.00
2018-12-20T01:59:26.332Z,0.00
2018-12-20T02:00:26.182Z,0.00
2018-12-20T02:01:26.190Z,0.00
2018-12-20T02:02:26.209Z,0.00
2018-12-20T02:03:26.149Z,0.00
2018-12-20T02:04:26.102Z,0.00
2018-12-20T02:05:26.093Z,0.00
2018-12-20T02:06:26.222Z,0.00
2018-12-20T02:07:26.202Z,0.00
2018-12-20T02:08:26.095Z,0.00
2018-12-20T02:09:26.050Z,0.00
2018-12-20T02:10:26.112Z,0.00
2018-12-20T02:11:26.207Z,0.00
2018-12-20T02:12:26.038Z,0.00
2018-12-20T02:13:26.113Z,0.00
2018-12-20T02:14:26.101Z,0.00
2018-12-20T02:15:26.078Z,0.00
2018-12-20T02:16:26.009Z,0.00
2018-12-20T02:17:26.173Z,0.00
2018-12-20T02:18:25.955Z,0.00
2018-12-20T02:19:25.979Z,0.00
2018-12-20T02:20:25.937Z,0.00
2018-12-20T02:21:25.987Z,0.00
2018-12-20T02:22:26.080Z,0.00
2018-12-20T02:23:26.120Z,0.00
2018-12-20T02:24:25.886Z,0.00
2018-12-20T02:25:25.890Z,0.00
2018-12-20T02:26:25.895Z,0.00
2018-12-20T02:27:25.914Z,0.00
2018-12-20T02:28:25.973Z,0.00
2018-12-20T02:29:26.015Z,0.00
2018-12-20T02:30:26.034Z,0.00
2018-12-20T02:31:25.999Z,0.00
2018-12-20T02:32:25.970Z,0.00
2018-12-20T02:33:26.018Z,0.00
2018-12-20T02:34:25.841Z,0.00
2018-12-20T02:35:25.868Z,0.00
2018-12-20T02:36:25.772Z,0.00
2018-12-20T02:37:25.819Z,0.00
2018-12-20T02:38:25.855Z,0.00
2018-12-20T02:39:25.759Z,0.00
2018-12-20T02:40:25.761Z,0.00
2018-12-20T02:41:25.722Z,0.00
2018-12-20T02:42:25.730Z,0.00
2018-12-20T02:43:25.695Z,0.00
2018-12-20T02:44:25.687Z,0.00
2018-12-20T02:45:26.137Z,0.00
2018-12-20T02:46:25.653Z,0.00
2018-12-20T02:47:25.657Z,0.00
2018-12-20T02:48:25.648Z,0.00
2018-12-20T02:49:25.688Z,0.00
2018-12-20T02:50:25.620Z,0.00
2018-12-20T02:51:25.950Z,0.00
2018-12-20T02:52:25.738Z,0.00
2018-12-20T02:53:25.773Z,0.00
2018-12-20T02:54:25.710Z,0.00
2018-12-20T02:55:25.943Z,0.00
2018-12-20T02:56:25.692Z,0.00
2018-12-20T02:57:25.756Z,0.00
2018-12-20T02:58:25.544Z,0.00
2018-12-20T02:59:25.579Z,0.00
2018-12-20T03:00:25.544Z,0.00
2018-12-20T03:01:25.493Z,0.00
2018-12-20T03:02:25.554Z,0.00
2018-12-20T03:03:25.532Z,0.00
2018-12-20T03:04:25.505Z,0.00
2018-12-20T03:05:25.523Z,0.00
2018-12-20T03:06:25.500Z,0.00
2018-12-20T03:07:25.444Z,0.00
2018-12-20T03:08:25.561Z,0.00
2018-12-20T03:09:25.446Z,0.00
2018-12-20T03:10:25.574Z,0.00
2018-12-20T03:11:25.461Z,0.00
2018-12-20T03:12:25.443Z,0.00
2018-12-20T03:13:25.395Z,0.00
2018-12-20T03:14:25.438Z,0.00
2018-12-20T03:15:25.590Z,0.00
2018-12-20T03:16:25.356Z,0.00
2018-12-20T03:17:25.367Z,0.00
2018-12-20T03:18:25.382Z,0.00
2018-12-20T03:19:25.613Z,0.00
2018-12-20T03:20:25.383Z,0.00
2018-12-20T03:21:25.455Z,0.00
2018-12-20T03:22:25.377Z,0.00
2018-12-20T03:23:25.291Z,0.00
2018-12-20T03:24:25.379Z,0.00
2018-12-20T03:25:25.291Z,0.00
2018-12-20T03:26:25.332Z,0.00
2018-12-20T03:27:25.437Z,0.00
2018-12-20T03:28:25.481Z,0.00
2018-12-20T03:29:25.210Z,0.00
2018-12-20T03:30:25.384Z,0.00
2018-12-20T03:31:25.171Z,0.00
2018-12-20T03:32:25.235Z,0.00
2018-12-20T03:33:25.164Z,0.00
2018-12-20T03:34:25.160Z,0.00
2018-12-20T03:35:25.137Z,0.00
2018-12-20T03:36:25.293Z,0.00
2018-12-20T03:37:25.207Z,0.00
2018-12-20T03:38:25.126Z,0.00
2018-12-20T03:39:25.086Z,0.00
2018-12-20T03:40:25.081Z,0.00
2018-12-20T03:41:25.106Z,0.00
2018-12-20T03:42:25.160Z,0.00
2018-12-20T03:43:25.299Z,0.00
2018-12-20T03:44:25.091Z,0.00
2018-12-20T03:45:29.169Z,0.00
2018-12-20T03:46:25.023Z,0.00
2018-12-20T03:47:25.223Z,0.00
2018-12-20T03:48:25.268Z,0.00
2018-12-20T03:49:25.189Z,0.00
2018-12-20T03:50:25.064Z,0.00
2018-12-20T03:51:25.134Z,0.00
2018-12-20T03:52:25.247Z,0.00
2018-12-20T03:53:24.949Z,0.00
2018-12-20T03:54:24.996Z,0.00
2018-12-20T03:55:25.006Z,0.00
2018-12-20T03:56:24.954Z,0.00
2018-12-20T03:57:25.117Z,0.00
2018-12-20T03:58:24.929Z,0.00
2018-12-20T03:59:24.883Z,0.00
2018-12-20T04:00:25.087Z,0.00
2018-12-20T04:01:25.057Z,0.00
2018-12-20T04:02:25.043Z,0.00
2018-12-20T04:03:24.941Z,0.00
2018-12-20T04:04:25.129Z,0.00
2018-12-20T04:05:25.082Z,0.00
2018-12-20T04:06:24.796Z,0.00
2018-12-20T04:07:25.179Z,0.00
2018-12-20T04:08:24.800Z,0.00
2018-12-20T04:09:24.861Z,0.00
2018-12-20T04:10:24.923Z,0.00
2018-12-20T04:11:24.900Z,0.00
2018-12-20T04:12:24.737Z,0.00
2018-12-20T04:13:25.080Z,0.00
2018-12-20T04:14:24.718Z,0.00
2018-12-20T04:15:24.712Z,0.00
2018-12-20T04:16:24.755Z,0.00
2018-12-20T04:17:24.686Z,0.00
2018-12-20T04:18:24.759Z,0.00
2018-12-20T04:19:24.700Z,0.00
2018-12-20T04:20:24.912Z,0.00
2018-12-20T04:21:24.745Z,0.00
2018-12-20T04:22:24.672Z,0.00
2018-12-20T04:23:24.762Z,0.00
2018-12-20T04:24:24.608Z,0.00
2018-12-20T04:25:24.657Z,0.00
2018-12-20T04:26:24.624Z,0.00
2018-12-20T04:27:24.887Z,0.00
2018-12-20T04:28:24.644Z,0.00
2018-12-20T04:29:24.627Z,0.00
2018-12-20T04:30:24.786Z,0.00
2018-12-20T04:31:24.574Z,0.00
2018-12-20T04:32:24.544Z,0.00
2018-12-20T04:33:24.531Z,0.00
2018-12-20T04:34:24.542Z,0.00
2018-12-20T04:35:24.780Z,0.00
2018-12-20T04:36:24.602Z,0.00
2018-12-20T04:37:24.517Z,0.00
2018-12-20T04:38:24.549Z,0.00
2018-12-20T04:39:24.446Z,0.00
2018-12-20T04:40:24.663Z,0.00
2018-12-20T04:41:24.421Z,0.00
2018-12-20T04:42:24.415Z,0.00
2018-12-20T04:43:24.524Z,0.00
2018-12-20T04:44:24.407Z,0.00
2018-12-20T04:45:24.399Z,0.00
2018-12-20T04:46:24.372Z,0.00
2018-12-20T04:47:24.619Z,0.00
2018-12-20T04:48:24.398Z,0.00
2018-12-20T04:49:24.445Z,0.00
2018-12-20T04:50:24.423Z,0.00
2018-12-20T04:51:24.357Z,0.00
2018-12-20T04:52:24.379Z,0.00
2018-12-20T04:53:24.380Z,0.00
2018-12-20T04:54:24.419Z,0.00
2018-12-20T04:55:24.301Z,0.00
2018-12-20T04:56:24.270Z,0.00
2018-12-20T04:57:24.297Z,0.00
2018-12-20T04:58:24.314Z,0.00
2018-12-20T04:59:24.335Z,0.00
2018-12-20T05:00:24.231Z,0.00
2018-12-20T05:01:24.490Z,0.00
2018-12-20T05:02:24.450Z,0.00
2018-12-20T05:03:24.392Z,0.00
2018-12-20T05:04:24.176Z,0.00
2018-12-20T05:05:24.220Z,0.00
2018-12-20T05:06:24.156Z,0.00
2018-12-20T05:07:24.450Z,0.00
2018-12-20T05:08:24.326Z,0.00
2018-12-20T05:09:24.126Z,0.00
2018-12-20T05:10:24.444Z,0.00
2018-12-20T05:11:24.144Z,0.00
2018-12-20T05:12:24.153Z,0.00
2018-12-20T05:13:24.573Z,0.00
2018-12-20T05:14:26.339Z,0.00
2018-12-20T05:15:24.154Z,0.00
2018-12-20T05:16:24.094Z,0.00
2018-12-20T05:17:24.049Z,0.00
2018-12-20T05:18:24.057Z,0.00
2018-12-20T05:19:24.080Z,0.00
2018-12-20T05:20:24.101Z,0.00
2018-12-20T05:21:24.160Z,0.00
2018-12-20T05:22:24.074Z,0.00
2018-12-20T05:23:24.092Z,0.00
2018-12-20T05:24:23.957Z,0.00
2018-12-20T05:25:24.218Z,0.00
2018-12-20T05:26:23.988Z,0.00
2018-12-20T05:27:24.005Z,0.00
2018-12-20T05:28:23.957Z,0.00
2018-12-20T05:29:23.993Z,0.00
2018-12-20T05:30:23.915Z,0.00
2018-12-20T05:31:23.923Z,0.00
2018-12-20T05:32:23.879Z,0.00
2018-12-20T05:33:23.990Z,0.00
2018-12-20T05:34:23.943Z,0.00
2018-12-20T05:35:23.864Z,0.00
2018-12-20T05:36:24.410Z,0.00
2018-12-20T05:37:24.186Z,0.00
2018-12-20T05:38:23.862Z,0.00
2018-12-20T05:39:23.818Z,0.00
2018-12-20T05:40:24.158Z,0.00
2018-12-20T05:41:23.788Z,0.00
2018-12-20T05:42:23.977Z,0.00
2018-12-20T05:43:23.984Z,0.00
2018-12-20T05:44:24.115Z,0.00
2018-12-20T05:45:23.837Z,0.00
2018-12-20T05:46:23.773Z,0.00
2018-12-20T05:47:23.778Z,0.00
2018-12-20T05:48:24.066Z,0.00
2018-12-20T05:49:23.747Z,0.00
2018-12-20T05:50:23.715Z,0.00
2018-12-20T05:51:23.964Z,0.00
2018-12-20T05:52:23.759Z,0.00
2018-12-20T05:53:24.016Z,0.00
2018-12-20T05:54:23.942Z,0.00
2018-12-20T05:55:23.727Z,0.00
2018-12-20T05:56:23.960Z,0.00
2018-12-20T05:57:23.697Z,0.00
2018-12-20T05:58:23.889Z,0.00
2018-12-20T05:59:23.927Z,0.00
2018-12-20T06:00:23.906Z,0.00
2018-12-20T06:01:23.810Z,0.00
2018-12-20T06:02:23.600Z,0.00
2018-12-20T06:03:23.808Z,0.00
2018-12-20T06:04:24.733Z,0.00
2018-12-20T06:05:23.832Z,0.00
2018-12-20T06:06:23.691Z,0.00
2018-12-20T06:07:23.567Z,0.00
2018-12-20T06:08:23.510Z,0.00
2018-12-20T06:09:23.538Z,0.00
2018-12-20T06:10:23.622Z,0.00
2018-12-20T06:11:24.480Z,0.00
2018-12-20T06:12:23.562Z,0.00
2018-12-20T06:13:23.451Z,0.00
2018-12-20T06:14:23.443Z,0.00
2018-12-20T06:15:23.658Z,0.00
2018-12-20T06:16:25.152Z,0.00
2018-12-20T06:17:23.684Z,0.00
2018-12-20T06:18:23.716Z,0.00
2018-12-20T06:19:23.433Z,0.00
2018-12-20T06:20:23.431Z,0.00
2018-12-20T06:21:23.453Z,0.00
2018-12-20T06:22:23.643Z,0.00
2018-12-20T06:23:23.408Z,0.00
2018-12-20T06:24:23.424Z,0.00
2018-12-20T06:25:23.353Z,0.00
2018-12-20T06:26:23.389Z,0.00
2018-12-20T06:27:23.342Z,0.00
2018-12-20T06:28:23.372Z,0.00
2018-12-20T06:29:23.314Z,0.00
2018-12-20T06:30:23.322Z,0.00
2018-12-20T06:31:23.289Z,0.00
2018-12-20T06:32:23.277Z,0.00
2018-12-20T06:33:23.347Z,0.00
2018-12-20T06:34:23.248Z,0.00
2018-12-20T06:35:23.243Z,0.00
2018-12-20T06:36:23.194Z,0.00
2018-12-20T06:37:23.176Z,0.00
2018-12-20T06:38:23.186Z,0.00
2018-12-20T06:39:23.223Z,0.00
2018-12-20T06:40:23.145Z,0.00
2018-12-20T06:41:23.147Z,0.00
2018-12-20T06:42:23.124Z,0.00
2018-12-20T06:43:23.116Z,0.00
2018-12-20T06:44:23.121Z,0.00
2018-12-20T06:45:23.093Z,0.00
2018-12-20T06:46:23.085Z,0.00
2018-12-20T06:47:23.080Z,0.00
2018-12-20T06:48:23.062Z,0.00
2018-12-20T06:49:23.056Z,0.00
2018-12-20T06:50:23.055Z,0.00
2018-12-20T06:51:23.034Z,0.00
2018-12-20T06:52:23.021Z,0.00
2018-12-20T06:53:23.010Z,0.00
2018-12-20T06:54:23.012Z,0.00
2018-12-20T06:55:22.988Z,0.00
2018-12-20T06:56:22.974Z,0.00
2018-12-20T06:57:22.970Z,0.00
2018-12-20T06:58:22.951Z,0.00
2018-12-20T06:59:23.052Z,0.00
2018-12-20T07:00:22.945Z,0.00
2018-12-20T07:01:22.924Z,0.00
2018-12-20T07:02:22.916Z,4.00
2018-12-20T07:03:22.899Z,4.00
2018-12-20T07:04:22.905Z,4.00
2018-12-20T07:05:22.875Z,0.00
2018-12-20T07:06:22.865Z,4.00
2018-12-20T07:07:22.855Z,4.00
2018-12-20T07:08:22.847Z,4.00
2018-12-20T07:09:22.865Z,8.00
2018-12-20T07:10:22.826Z,4.00
2018-12-20T07:11:22.818Z,8.00
2018-12-20T07:12:22.804Z,8.00
2018-12-20T07:13:22.798Z,12.00
2018-12-20T07:14:22.796Z,12.00
2018-12-20T07:15:22.775Z,12.00
2018-12-20T07:16:29.314Z,16.00
2018-12-20T07:17:23.764Z,16.00
2018-12-20T07:18:22.746Z,20.00
2018-12-20T07:19:22.756Z,20.00
2018-12-20T07:20:22.715Z,24.00
2018-12-20T07:21:22.803Z,28.00
2018-12-20T07:22:22.721Z,32.00
2018-12-20T07:23:22.715Z,36.00
2018-12-20T07:24:22.696Z,36.00
2018-12-20T07:25:22.689Z,44.00
2018-12-20T07:26:22.653Z,48.00
2018-12-20T07:27:22.689Z,48.00
2018-12-20T07:28:22.643Z,48.00
2018-12-20T07:29:22.647Z,52.00
2018-12-20T07:30:22.611Z,52.00
2018-12-20T07:31:22.622Z,56.00
2018-12-20T07:32:25.246Z,56.00
2018-12-20T07:33:22.576Z,52.00
2018-12-20T07:34:22.573Z,56.00
2018-12-20T07:35:22.605Z,56.00
2018-12-20T07:36:22.548Z,56.00
2018-12-20T07:37:24.289Z,68.00
2018-12-20T07:38:22.531Z,76.00
2018-12-20T07:39:22.536Z,80.00
2018-12-20T07:40:22.509Z,84.00
2018-12-20T07:41:22.512Z,88.00
2018-12-20T07:42:22.480Z,100.00
2018-12-20T07:43:22.472Z,120.00
2018-12-20T07:44:22.701Z,128.00
2018-12-20T07:45:22.473Z,112.00
2018-12-20T07:46:22.443Z,100.00
2018-12-20T07:47:22.449Z,108.00
2018-12-20T07:48:22.428Z,108.00
2018-12-20T07:49:22.422Z,116.00
2018-12-20T07:50:22.426Z,108.00
2018-12-20T07:51:22.431Z,88.00
2018-12-20T07:52:22.386Z,76.00
2018-12-20T07:53:22.406Z,96.00
2018-12-20T07:54:22.392Z,120.00
2018-12-20T07:55:22.353Z,140.00
2018-12-20T07:56:22.386Z,160.00
2018-12-20T07:57:22.360Z,168.00
2018-12-20T07:58:22.311Z,176.00
2018-12-20T07:59:23.643Z,180.00
2018-12-20T08:00:22.309Z,180.00
2018-12-20T08:01:22.288Z,188.00
2018-12-20T08:02:22.283Z,204.00
2018-12-20T08:03:22.263Z,196.00
2018-12-20T08:04:22.281Z,148.00
2018-12-20T08:05:22.278Z,120.00
2018-12-20T08:06:22.254Z,132.00
2018-12-20T08:07:22.215Z,184.00
2018-12-20T08:08:22.222Z,212.00
2018-12-20T08:09:22.217Z,208.00
2018-12-20T08:10:22.193Z,256.00
2018-12-20T08:11:22.185Z,368.00
2018-12-20T08:12:22.169Z,384.00
2018-12-20T08:13:22.170Z,412.00
2018-12-20T08:14:22.192Z,468.00
2018-12-20T08:15:22.149Z,420.00
2018-12-20T08:16:22.121Z,452.00
2018-12-20T08:17:22.115Z,484.00
2018-12-20T08:18:22.095Z,532.00
2018-12-20T08:19:22.103Z,556.00
2018-12-20T08:20:22.081Z,584.00
2018-12-20T08:21:22.078Z,636.00
2018-12-20T08:22:22.071Z,736.00
2018-12-20T08:23:22.060Z,792.00
2018-12-20T08:24:22.060Z,836.00
2018-12-20T08:25:22.021Z,884.00
2018-12-20T08:26:22.037Z,916.00
2018-12-20T08:27:22.020Z,936.00
2018-12-20T08:28:22.076Z,940.00
2018-12-20T08:29:22.020Z,964.00
2018-12-20T08:30:21.966Z,1012.00
2018-12-20T08:31:21.963Z,1044.00
2018-12-20T08:32:21.957Z,1068.00
2018-12-20T08:33:21.936Z,1092.00
2018-12-20T08:34:21.975Z,1124.00
2018-12-20T08:35:21.934Z,1128.00
2018-12-20T08:36:21.904Z,1132.00
2018-12-20T08:37:21.894Z,1136.00
2018-12-20T08:38:21.888Z,1112.00
2018-12-20T08:39:21.887Z,1140.00
2018-12-20T08:40:21.860Z,1172.00
2018-12-20T08:41:21.856Z,1200.00
2018-12-20T08:42:21.872Z,1220.00
2018-12-20T08:43:21.843Z,1240.00
2018-12-20T08:44:21.866Z,1212.00
2018-12-20T08:45:21.814Z,1200.00
2018-12-20T08:46:21.807Z,1216.00
2018-12-20T08:47:21.786Z,1212.00
2018-12-20T08:48:21.793Z,1240.00
2018-12-20T08:49:21.784Z,1284.00
2018-12-20T08:50:21.751Z,1380.00
2018-12-20T08:51:21.748Z,1416.00
2018-12-20T08:52:21.747Z,1464.00
2018-12-20T08:53:21.719Z,1520.00
2018-12-20T08:54:21.723Z,1576.00
2018-12-20T08:55:21.717Z,1624.00
2018-12-20T08:56:21.692Z,1596.00
2018-12-20T08:57:21.679Z,1600.00
2018-12-20T08:58:21.701Z,1640.00
2018-12-20T08:59:21.692Z,1588.00
2018-12-20T09:00:21.659Z,1440.00
2018-12-20T09:01:21.644Z,1284.00
2018-12-20T09:02:21.655Z,992.00
2018-12-20T09:03:21.615Z,868.00
2018-12-20T09:04:21.625Z,964.00
2018-12-20T09:05:21.592Z,1048.00
2018-12-20T09:06:21.631Z,1088.00
2018-12-20T09:07:21.625Z,996.00
2018-12-20T09:08:21.561Z,1068.00
2018-12-20T09:09:21.592Z,1140.00
2018-12-20T09:10:21.539Z,1064.00
2018-12-20T09:11:21.534Z,928.00
2018-12-20T09:12:21.516Z,808.00
2018-12-20T09:13:21.532Z,812.00
2018-12-20T09:14:21.495Z,876.00
2018-12-20T09:15:21.506Z,956.00
2018-12-20T09:16:21.516Z,1076.00
2018-12-20T09:17:21.465Z,1016.00
2018-12-20T09:18:21.452Z,1056.00
2018-12-20T09:19:21.452Z,992.00
2018-12-20T09:20:21.439Z,812.00
2018-12-20T09:21:21.598Z,828.00
2018-12-20T09:22:21.445Z,952.00
2018-12-20T09:23:21.402Z,1036.00
2018-12-20T09:24:21.390Z,1252.00
2018-12-20T09:25:21.417Z,1364.00
2018-12-20T09:26:21.366Z,1408.00
2018-12-20T09:27:21.474Z,1360.00
2018-12-20T09:28:21.368Z,1224.00
2018-12-20T09:29:21.340Z,1064.00
2018-12-20T09:30:21.324Z,1212.00
2018-12-20T09:31:21.341Z,1248.00
2018-12-20T09:32:21.302Z,1452.00
2018-12-20T09:33:21.330Z,1496.00
2018-12-20T09:34:21.325Z,1416.00
2018-12-20T09:35:21.272Z,1856.00
2018-12-20T09:36:21.265Z,2088.00
2018-12-20T09:37:21.270Z,2092.00
2018-12-20T09:38:21.239Z,1644.00
2018-12-20T09:39:21.245Z,1544.00
2018-12-20T09:40:21.267Z,1816.00
2018-12-20T09:41:21.212Z,1900.00
2018-12-20T09:42:21.199Z,1872.00
2018-12-20T09:43:21.198Z,1780.00
2018-12-20T09:44:21.239Z,1596.00
2018-12-20T09:45:21.183Z,1604.00
2018-12-20T09:46:21.211Z,1776.00
2018-12-20T09:47:21.174Z,1720.00
2018-12-20T09:48:21.131Z,1488.00
2018-12-20T09:49:21.154Z,1416.00
2018-12-20T09:50:21.156Z,1776.00
2018-12-20T09:51:21.112Z,2032.00
2018-12-20T09:52:21.091Z,1900.00
2018-12-20T09:53:21.129Z,1352.00
2018-12-20T09:54:21.088Z,1116.00
2018-12-20T09:55:21.059Z,1188.00
2018-12-20T09:56:21.047Z,1420.00
2018-12-20T09:57:21.055Z,1380.00
2018-12-20T09:58:21.048Z,1232.00
2018-12-20T09:59:21.152Z,944.00
2018-12-20T10:00:21.022Z,1352.00
2018-12-20T10:01:20.992Z,1236.00
2018-12-20T10:02:21.079Z,1252.00
2018-12-20T10:03:20.984Z,1372.00
2018-12-20T10:04:21.008Z,1056.00
2018-12-20T10:05:20.961Z,1128.00
2018-12-20T10:06:21.038Z,1184.00
2018-12-20T10:07:20.934Z,908.00
2018-12-20T10:08:20.933Z,980.00
2018-12-20T10:09:20.915Z,1100.00
2018-12-20T10:10:21.001Z,1596.00
2018-12-20T10:11:20.896Z,1728.00
2018-12-20T10:12:20.881Z,2044.00
2018-12-20T10:13:20.909Z,2012.00
2018-12-20T10:14:20.858Z,1888.00
2018-12-20T10:15:20.895Z,1884.00
2018-12-20T10:16:20.897Z,2100.00
2018-12-20T10:17:20.826Z,2280.00
2018-12-20T10:18:20.831Z,2320.00
2018-12-20T10:19:20.816Z,2180.00
2018-12-20T10:20:20.817Z,2076.00
2018-12-20T10:21:21.915Z,2136.00
2018-12-20T10:22:20.779Z,2208.00
2018-12-20T10:23:20.764Z,2320.00
2018-12-20T10:24:20.755Z,2236.00
2018-12-20T10:25:20.774Z,2140.00
2018-12-20T10:26:20.768Z,2112.00
2018-12-20T10:27:20.718Z,2024.00
2018-12-20T10:28:20.726Z,1924.00
2018-12-20T10:29:20.700Z,1764.00
2018-12-20T10:30:20.745Z,1792.00
2018-12-20T10:31:20.707Z,1752.00
2018-12-20T10:32:20.657Z,1808.00
2018-12-20T10:33:20.729Z,1824.00
2018-12-20T10:34:20.638Z,1816.00
2018-12-20T10:35:20.642Z,1792.00
2018-12-20T10:36:20.645Z,1784.00
2018-12-20T10:37:20.613Z,1860.00
2018-12-20T10:38:20.665Z,1912.00
2018-12-20T10:39:20.585Z,1924.00
2018-12-20T10:40:20.675Z,1976.00
2018-12-20T10:41:20.565Z,2128.00
2018-12-20T10:42:20.549Z,2440.00
2018-12-20T10:43:20.544Z,2688.00
2018-12-20T10:44:20.589Z,2612.00
2018-12-20T10:45:20.523Z,2612.00
2018-12-20T10:46:20.528Z,2476.00
2018-12-20T10:47:28.584Z,2116.00
2018-12-20T10:48:21.485Z,1588.00
2018-12-20T10:49:20.489Z,1344.00
2018-12-20T10:50:20.538Z,1448.00
2018-12-20T10:51:20.459Z,1488.00
2018-12-20T10:52:20.519Z,1736.00
2018-12-20T10:53:20.461Z,2024.00
2018-12-20T10:54:20.431Z,1936.00
2018-12-20T10:55:20.432Z,1912.00
2018-12-20T10:56:20.483Z,2248.00
2018-12-20T10:57:20.391Z,2560.00
2018-12-20T10:58:21.470Z,2720.00
2018-12-20T10:59:20.399Z,2728.00
2018-12-20T11:00:20.380Z,2680.00
2018-12-20T11:01:20.344Z,2812.00
2018-12-20T11:02:20.366Z,2744.00
2018-12-20T11:03:20.326Z,2820.00
2018-12-20T11:04:20.316Z,2928.00
2018-12-20T11:05:20.320Z,3056.00
2018-12-20T11:06:20.371Z,3172.00
2018-12-20T11:07:20.292Z,3180.00
2018-12-20T11:08:20.292Z,3000.00
2018-12-20T11:09:20.508Z,2624.00
2018-12-20T11:10:20.247Z,2076.00
2018-12-20T11:11:20.240Z,1656.00
2018-12-20T11:12:20.266Z,1720.00
2018-12-20T11:13:20.226Z,1712.00
2018-12-20T11:14:20.205Z,1396.00
2018-12-20T11:15:20.292Z,1296.00
2018-12-20T11:16:20.194Z,1100.00
2018-12-20T11:17:20.200Z,1248.00
2018-12-20T11:18:20.204Z,2072.00
2018-12-20T11:19:20.253Z,2736.00
2018-12-20T11:20:20.164Z,3648.00
2018-12-20T11:21:20.160Z,3848.00
2018-12-20T11:22:20.121Z,3976.00
2018-12-20T11:23:20.112Z,4012.00
2018-12-20T11:24:20.105Z,4104.00
2018-12-20T11:25:20.115Z,3788.00
2018-12-20T11:26:20.073Z,3032.00
2018-12-20T11:27:20.070Z,2784.00
2018-12-20T11:28:20.057Z,2672.00
2018-12-20T11:29:20.042Z,2748.00
2018-12-20T11:30:20.054Z,2760.00
2018-12-20T11:31:20.042Z,2388.00
2018-12-20T11:32:20.010Z,2060.00
2018-12-20T11:33:20.001Z,1976.00
2018-12-20T11:34:19.990Z,2332.00
2018-12-20T11:35:19.989Z,2900.00
2018-12-20T11:36:19.994Z,3288.00
2018-12-20T11:37:19.957Z,3280.00
2018-12-20T11:38:19.947Z,2964.00
2018-12-20T11:39:19.934Z,2820.00
2018-12-20T11:40:19.926Z,2956.00
2018-12-20T11:41:19.933Z,3072.00
2018-12-20T11:42:19.924Z,3412.00
2018-12-20T11:43:19.893Z,3416.00
2018-12-20T11:44:19.883Z,3412.00
2018-12-20T11:45:19.917Z,3512.00
2018-12-20T11:46:19.863Z,3532.00
2018-12-20T11:47:19.850Z,3640.00
2018-12-20T11:48:19.856Z,3800.00
2018-12-20T11:49:20.607Z,3580.00
2018-12-20T11:50:19.818Z,3188.00
2018-12-20T11:51:19.844Z,3068.00
2018-12-20T11:52:19.801Z,2748.00
2018-12-20T11:53:19.783Z,2388.00
2018-12-20T11:54:19.793Z,2508.00
2018-12-20T11:55:19.785Z,2900.00
2018-12-20T11:56:20.076Z,3336.00
2018-12-20T11:57:19.740Z,3452.00
2018-12-20T11:58:19.735Z,2812.00
2018-12-20T11:59:19.754Z,2024.00
2018-12-20T12:00:19.710Z,1748.00
2018-12-20T12:01:19.736Z,1916.00
2018-12-20T12:02:24.372Z,2292.00
2018-12-20T12:03:20.676Z,2360.00
2018-12-20T12:04:19.664Z,2580.00
2018-12-20T12:05:19.653Z,2820.00
2018-12-20T12:06:19.643Z,3276.00
2018-12-20T12:07:19.649Z,3108.00
2018-12-20T12:08:19.668Z,2740.00
2018-12-20T12:09:19.637Z,2504.00
2018-12-20T12:10:19.611Z,2256.00
2018-12-20T12:11:19.591Z,2064.00
2018-12-20T12:12:19.591Z,1544.00
2018-12-20T12:13:19.612Z,960.00
2018-12-20T12:14:19.601Z,896.00
2018-12-20T12:15:19.554Z,1360.00
2018-12-20T12:16:19.558Z,1220.00
2018-12-20T12:17:19.618Z,1312.00
2018-12-20T12:18:19.520Z,1248.00
2018-12-20T12:19:19.515Z,1032.00
2018-12-20T12:20:19.493Z,1128.00
2018-12-20T12:21:19.498Z,1276.00
2018-12-20T12:22:19.505Z,1536.00
2018-12-20T12:23:19.459Z,1064.00
2018-12-20T12:24:19.449Z,976.00
2018-12-20T12:25:19.461Z,1652.00
2018-12-20T12:26:19.428Z,1272.00
2018-12-20T12:27:19.448Z,688.00
2018-12-20T12:28:19.409Z,652.00
2018-12-20T12:29:19.441Z,600.00
2018-12-20T12:30:19.489Z,584.00
2018-12-20T12:31:19.411Z,768.00
2018-12-20T12:32:19.392Z,872.00
2018-12-20T12:33:19.419Z,760.00
2018-12-20T12:34:19.373Z,1132.00
2018-12-20T12:35:19.356Z,1432.00
2018-12-20T12:36:19.352Z,836.00
2018-12-20T12:37:19.322Z,468.00
2018-12-20T12:38:19.349Z,776.00
2018-12-20T12:39:19.701Z,1052.00
2018-12-20T12:40:19.289Z,888.00
2018-12-20T12:41:19.461Z,720.00
2018-12-20T12:42:19.363Z,740.00
2018-12-20T12:43:19.246Z,696.00
2018-12-20T12:44:19.232Z,752.00
2018-12-20T12:45:19.221Z,1008.00
2018-12-20T12:46:19.408Z,1372.00
2018-12-20T12:47:19.203Z,1304.00
2018-12-20T12:48:19.190Z,1804.00
2018-12-20T12:49:19.210Z,2500.00